sensor_id;sensor_type;location;lat;lon;timestamp;pressure;altitude;pressure_sealevel;temperature;humidity
54910;BME280;63189;51.240;9.964;2022-09-09T00:02:19;97375.38;;;13.56;90.35
54910;BME280;63189;51.240;9.964;2022-09-09T00:05:16;97372.28;;;13.48;90.95
54910;BME280;63189;51.240;9.964;2022-09-09T00:07:51;97369.75;;;13.47;91.08
54910;BME280;63189;51.240;9.964;2022-09-09T00:10:33;97361.81;;;13.48;90.88
54910;BME280;63189;51.240;9.964;2022-09-09T00:18:11;97372.28;;;13.48;90.41
54910;BME280;63189;51.240;9.964;2022-09-09T00:23:30;97370.69;;;13.46;90.07
54910;BME280;63189;51.240;9.964;2022-09-09T00:28:50;97354.25;;;13.42;90.05
54910;BME280;63189;51.240;9.964;2022-09-09T00:31:23;97367.22;;;13.45;89.40
54910;BME280;63189;51.240;9.964;2022-09-09T00:33:51;97369.97;;;13.42;90.85
54910;BME280;63189;51.240;9.964;2022-09-09T00:36:21;97365.13;;;13.35;91.21
54910;BME280;63189;51.240;9.964;2022-09-09T00:38:57;97359.75;;;13.38;91.10
54910;BME280;63189;51.240;9.964;2022-09-09T00:47:03;97358.72;;;13.40;91.07
54910;BME280;63189;51.240;9.964;2022-09-09T00:57:33;97364.91;;;13.39;91.16
54910;BME280;63189;51.240;9.964;2022-09-09T01:05:20;97365.66;;;13.41;91.39
54910;BME280;63189;51.240;9.964;2022-09-09T01:07:49;97374.28;;;13.43;91.22
54910;BME280;63189;51.240;9.964;2022-09-09T01:10:24;97362.94;;;13.43;90.99
54910;BME280;63189;51.240;9.964;2022-09-09T01:12:55;97369.97;;;13.42;91.70
54910;BME280;63189;51.240;9.964;2022-09-09T01:15:26;97364.66;;;13.44;91.44
54910;BME280;63189;51.240;9.964;2022-09-09T01:17:59;97364.66;;;13.44;91.25
54910;BME280;63189;51.240;9.964;2022-09-09T01:23:36;97361.44;;;13.39;92.19
54910;BME280;63189;51.240;9.964;2022-09-09T01:26:35;97358.91;;;13.37;92.51
54910;BME280;63189;51.240;9.964;2022-09-09T01:29:02;97363.03;;;13.41;91.80
54910;BME280;63189;51.240;9.964;2022-09-09T01:34:16;97366.38;;;13.45;91.57
54910;BME280;63189;51.240;9.964;2022-09-09T01:36:49;97364.34;;;13.50;91.38
54910;BME280;63189;51.240;9.964;2022-09-09T01:39:18;97368.72;;;13.49;90.97
54910;BME280;63189;51.240;9.964;2022-09-09T01:41:45;97367.81;;;13.50;91.46
54910;BME280;63189;51.240;9.964;2022-09-09T01:44:10;97369.34;;;13.54;91.11
54910;BME280;63189;51.240;9.964;2022-09-09T01:46:36;97366.88;;;13.51;91.22
54910;BME280;63189;51.240;9.964;2022-09-09T01:49:04;97365.94;;;13.52;90.96
54910;BME280;63189;51.240;9.964;2022-09-09T01:51:30;97361.47;;;13.54;91.31
54910;BME280;63189;51.240;9.964;2022-09-09T01:53:56;97360.97;;;13.48;91.25
54910;BME280;63189;51.240;9.964;2022-09-09T02:04:32;97363.34;;;13.52;91.77
54910;BME280;63189;51.240;9.964;2022-09-09T02:07:01;97362.47;;;13.52;91.57
54910;BME280;63189;51.240;9.964;2022-09-09T02:09:29;97357.25;;;13.52;91.84
54910;BME280;63189;51.240;9.964;2022-09-09T02:12:16;97360.78;;;13.51;91.91
54910;BME280;63189;51.240;9.964;2022-09-09T02:14:50;97360.13;;;13.47;91.62
54910;BME280;63189;51.240;9.964;2022-09-09T02:17:25;97364.50;;;13.47;91.74
54910;BME280;63189;51.240;9.964;2022-09-09T02:20:12;97364.44;;;13.48;91.88
54910;BME280;63189;51.240;9.964;2022-09-09T02:22:42;97367.22;;;13.45;91.86
54910;BME280;63189;51.240;9.964;2022-09-09T02:25:12;97370.59;;;13.47;91.73
54910;BME280;63189;51.240;9.964;2022-09-09T02:27:41;97374.13;;;13.46;91.54
54910;BME280;63189;51.240;9.964;2022-09-09T02:30:09;97370.59;;;13.47;91.34
54910;BME280;63189;51.240;9.964;2022-09-09T02:32:38;97370.59;;;13.47;91.44
54910;BME280;63189;51.240;9.964;2022-09-09T02:35:13;97362.94;;;13.43;91.63
54910;BME280;63189;51.240;9.964;2022-09-09T02:37:41;97369.59;;;13.50;91.27
54910;BME280;63189;51.240;9.964;2022-09-09T02:40:09;97368.72;;;13.49;91.50
54910;BME280;63189;51.240;9.964;2022-09-09T02:42:39;97361.91;;;13.47;91.68
54910;BME280;63189;51.240;9.964;2022-09-09T02:45:06;97360.97;;;13.48;91.75
54910;BME280;63189;51.240;9.964;2022-09-09T02:47:35;97352.25;;;13.47;91.58
54910;BME280;63189;51.240;9.964;2022-09-09T02:50:13;97358.00;;;13.54;91.35
54910;BME280;63189;51.240;9.964;2022-09-09T02:52:57;97352.00;;;13.52;91.25
54910;BME280;63189;51.240;9.964;2022-09-09T02:57:56;97365.66;;;13.58;91.20
54910;BME280;63189;51.240;9.964;2022-09-09T03:00:27;97367.41;;;13.58;91.06
54910;BME280;63189;51.240;9.964;2022-09-09T03:02:53;97355.34;;;13.55;91.14
54910;BME280;63189;51.240;9.964;2022-09-09T03:05:20;97360.41;;;13.58;91.06
54910;BME280;63189;51.240;9.964;2022-09-09T03:07:45;97360.56;;;13.55;90.89
54910;BME280;63189;51.240;9.964;2022-09-09T03:10:11;97368.09;;;13.62;90.75
54910;BME280;63189;51.240;9.964;2022-09-09T03:12:36;97367.50;;;13.56;90.68
54910;BME280;63189;51.240;9.964;2022-09-09T03:15:02;97378.41;;;13.65;90.60
54910;BME280;63189;51.240;9.964;2022-09-09T03:17:27;97376.66;;;13.65;90.25
54910;BME280;63189;51.240;9.964;2022-09-09T03:19:53;97371.66;;;13.61;90.57
54910;BME280;63189;51.240;9.964;2022-09-09T03:22:20;97363.78;;;13.61;90.29
54910;BME280;63189;51.240;9.964;2022-09-09T03:24:46;97368.84;;;13.64;90.53
54910;BME280;63189;51.240;9.964;2022-09-09T03:27:12;97357.41;;;13.66;90.70
54910;BME280;63189;51.240;9.964;2022-09-09T03:29:39;97355.75;;;13.64;90.83
54910;BME280;63189;51.240;9.964;2022-09-09T03:32:04;97348.84;;;13.63;90.53
54910;BME280;63189;51.240;9.964;2022-09-09T03:34:30;97350.38;;;13.67;90.44
54910;BME280;63189;51.240;9.964;2022-09-09T03:36:55;97353.94;;;13.66;90.39
54910;BME280;63189;51.240;9.964;2022-09-09T03:39:21;97352.38;;;13.62;90.59
54910;BME280;63189;51.240;9.964;2022-09-09T03:41:46;97355.09;;;13.60;90.43
54910;BME280;63189;51.240;9.964;2022-09-09T03:44:13;97362.25;;;13.56;90.63
54910;BME280;63189;51.240;9.964;2022-09-09T03:46:39;97344.84;;;13.55;90.41
54910;BME280;63189;51.240;9.964;2022-09-09T03:49:04;97354.53;;;13.53;90.50
54910;BME280;63189;51.240;9.964;2022-09-09T03:51:29;97351.00;;;13.54;90.51
54910;BME280;63189;51.240;9.964;2022-09-09T03:53:55;97346.69;;;13.53;90.27
54910;BME280;63189;51.240;9.964;2022-09-09T03:56:21;97341.63;;;13.50;90.31
54910;BME280;63189;51.240;9.964;2022-09-09T03:58:47;97349.81;;;13.44;90.40
54910;BME280;63189;51.240;9.964;2022-09-09T04:01:13;97352.44;;;13.44;90.77
54910;BME280;63189;51.240;9.964;2022-09-09T04:03:39;97349.19;;;13.39;90.38
54910;BME280;63189;51.240;9.964;2022-09-09T04:06:06;97352.66;;;13.40;90.66
54910;BME280;63189;51.240;9.964;2022-09-09T04:08:33;97352.91;;;13.35;90.51
54910;BME280;63189;51.240;9.964;2022-09-09T04:10:59;97343.47;;;13.31;91.14
54910;BME280;63189;51.240;9.964;2022-09-09T04:13:30;97353.28;;;13.27;91.17
54910;BME280;63189;51.240;9.964;2022-09-09T04:15:57;97349.47;;;13.33;91.02
54910;BME280;63189;51.240;9.964;2022-09-09T04:18:24;97343.41;;;13.33;90.98
54910;BME280;63189;51.240;9.964;2022-09-09T04:20:52;97345.19;;;13.32;90.92
54910;BME280;63189;51.240;9.964;2022-09-09T04:23:18;97342.72;;;13.29;91.20
54910;BME280;63189;51.240;9.964;2022-09-09T04:25:46;97344.25;;;13.33;91.20
54910;BME280;63189;51.240;9.964;2022-09-09T04:28:13;97343.34;;;13.34;90.99
54910;BME280;63189;51.240;9.964;2022-09-09T04:30:39;97352.94;;;13.34;90.93
54910;BME280;63189;51.240;9.964;2022-09-09T04:33:05;97350.28;;;13.35;90.89
54910;BME280;63189;51.240;9.964;2022-09-09T04:35:31;97352.94;;;13.34;90.76
54910;BME280;63189;51.240;9.964;2022-09-09T04:37:56;97346.56;;;13.39;90.79
54910;BME280;63189;51.240;9.964;2022-09-09T04:40:22;97344.88;;;13.38;90.77
54910;BME280;63189;51.240;9.964;2022-09-09T04:42:47;97341.56;;;13.35;90.88
54910;BME280;63189;51.240;9.964;2022-09-09T04:45:13;97344.19;;;13.35;90.89
54910;BME280;63189;51.240;9.964;2022-09-09T04:47:39;97344.25;;;13.33;91.31
54910;BME280;63189;51.240;9.964;2022-09-09T04:50:04;97351.25;;;13.33;91.15
54910;BME280;63189;51.240;9.964;2022-09-09T04:52:30;97346.94;;;13.32;91.44
54910;BME280;63189;51.240;9.964;2022-09-09T04:54:55;97347.03;;;13.30;91.22
54910;BME280;63189;51.240;9.964;2022-09-09T04:57:20;97342.72;;;13.29;91.54
54910;BME280;63189;51.240;9.964;2022-09-09T04:59:46;97341.97;;;13.27;90.89
54910;BME280;63189;51.240;9.964;2022-09-09T05:02:11;97351.41;;;13.29;91.67
54910;BME280;63189;51.240;9.964;2022-09-09T05:04:37;97342.03;;;13.25;91.07
54910;BME280;63189;51.240;9.964;2022-09-09T05:07:02;97346.44;;;13.25;90.89
54910;BME280;63189;51.240;9.964;2022-09-09T05:09:28;97349.06;;;13.25;91.26
54910;BME280;63189;51.240;9.964;2022-09-09T05:11:54;97365.75;;;13.22;91.96
54910;BME280;63189;51.240;9.964;2022-09-09T05:14:19;97364.88;;;13.22;91.75
54910;BME280;63189;51.240;9.964;2022-09-09T05:16:45;97369.19;;;13.23;92.05
54910;BME280;63189;51.240;9.964;2022-09-09T05:19:12;97359.53;;;13.25;91.46
54910;BME280;63189;51.240;9.964;2022-09-09T05:21:37;97359.66;;;13.22;91.89
54910;BME280;63189;51.240;9.964;2022-09-09T05:24:03;97362.06;;;13.26;91.86
54910;BME280;63189;51.240;9.964;2022-09-09T05:26:28;97366.28;;;13.29;92.05
54910;BME280;63189;51.240;9.964;2022-09-09T05:28:57;97362.06;;;13.26;91.93
54910;BME280;63189;51.240;9.964;2022-09-09T05:31:24;97362.56;;;13.33;91.52
54910;BME280;63189;51.240;9.964;2022-09-09T05:33:53;97354.88;;;13.30;91.58
54910;BME280;63189;51.240;9.964;2022-09-09T05:36:20;97356.50;;;13.33;91.86
54910;BME280;63189;51.240;9.964;2022-09-09T05:38:46;97357.28;;;13.35;91.41
54910;BME280;63189;51.240;9.964;2022-09-09T05:41:12;97360.59;;;13.38;91.32
54910;BME280;63189;51.240;9.964;2022-09-09T05:43:41;97363.97;;;13.40;91.14
54910;BME280;63189;51.240;9.964;2022-09-09T05:46:09;97363.81;;;13.43;91.23
54910;BME280;63189;51.240;9.964;2022-09-09T05:48:39;97358.44;;;13.46;91.11
54910;BME280;63189;51.240;9.964;2022-09-09T05:51:07;97370.44;;;13.50;90.91
54910;BME280;63189;51.240;9.964;2022-09-09T05:53:33;97365.09;;;13.52;90.71
54910;BME280;63189;51.240;9.964;2022-09-09T05:56:04;97369.19;;;13.57;90.77
54910;BME280;63189;51.240;9.964;2022-09-09T05:58:34;97366.56;;;13.57;90.84
54910;BME280;63189;51.240;9.964;2022-09-09T06:01:03;97374.56;;;13.54;90.71
54910;BME280;63189;51.240;9.964;2022-09-09T06:03:29;97378.91;;;13.55;90.91
54910;BME280;63189;51.240;9.964;2022-09-09T06:05:58;97370.50;;;13.49;91.25
54910;BME280;63189;51.240;9.964;2022-09-09T06:08:24;97376.13;;;13.41;91.67
54910;BME280;63189;51.240;9.964;2022-09-09T06:10:49;97386.47;;;13.44;91.76
54910;BME280;63189;51.240;9.964;2022-09-09T06:13:14;97386.59;;;13.41;91.80
54910;BME280;63189;51.240;9.964;2022-09-09T06:15:49;97395.22;;;13.43;92.29
54910;BME280;63189;51.240;9.964;2022-09-09T06:18:15;97381.53;;;13.38;92.26
54910;BME280;63189;51.240;9.964;2022-09-09T06:20:56;97378.22;;;13.35;92.59
54910;BME280;63189;51.240;9.964;2022-09-09T06:23:21;97377.91;;;13.41;92.29
54910;BME280;63189;51.240;9.964;2022-09-09T06:25:47;97388.75;;;13.50;92.22
54910;BME280;63189;51.240;9.964;2022-09-09T06:28:12;97376.34;;;13.54;91.86
54910;BME280;63189;51.240;9.964;2022-09-09T06:30:38;97380.34;;;13.61;92.28
54910;BME280;63189;51.240;9.964;2022-09-09T06:33:05;97380.25;;;13.63;92.28
54910;BME280;63189;51.240;9.964;2022-09-09T06:35:30;97388.28;;;13.77;91.88
54910;BME280;63189;51.240;9.964;2022-09-09T06:37:55;97392.88;;;13.89;91.57
54910;BME280;63189;51.240;9.964;2022-09-09T06:40:21;97381.63;;;14.03;91.87
54910;BME280;63189;51.240;9.964;2022-09-09T06:42:46;97380.22;;;14.13;90.35
54910;BME280;63189;51.240;9.964;2022-09-09T06:45:11;97378.88;;;14.22;90.19
54910;BME280;63189;51.240;9.964;2022-09-09T06:47:37;97377.63;;;14.29;90.41
54910;BME280;63189;51.240;9.964;2022-09-09T06:50:02;97382.59;;;14.33;90.47
54910;BME280;63189;51.240;9.964;2022-09-09T06:52:27;97383.78;;;14.43;90.02
54910;BME280;63189;51.240;9.964;2022-09-09T06:54:53;97375.38;;;14.54;89.70
54910;BME280;63189;51.240;9.964;2022-09-09T06:57:18;97374.44;;;14.71;89.58
54910;BME280;63189;51.240;9.964;2022-09-09T06:59:44;97369.06;;;14.88;88.65
54910;BME280;63189;51.240;9.964;2022-09-09T07:02:09;97363.78;;;15.04;87.73
54910;BME280;63189;51.240;9.964;2022-09-09T07:04:35;97361.09;;;15.20;87.00
54910;BME280;63189;51.240;9.964;2022-09-09T07:07:00;97371.28;;;15.40;85.70
54910;BME280;63189;51.240;9.964;2022-09-09T07:09:26;97364.63;;;15.65;83.86
54910;BME280;63189;51.240;9.964;2022-09-09T07:11:52;97355.59;;;15.83;84.66
54910;BME280;63189;51.240;9.964;2022-09-09T07:14:18;97369.03;;;15.93;83.32
54910;BME280;63189;51.240;9.964;2022-09-09T07:16:44;97369.97;;;16.06;81.92
54910;BME280;63189;51.240;9.964;2022-09-09T07:19:11;97368.91;;;16.23;81.61
54910;BME280;63189;51.240;9.964;2022-09-09T07:21:36;97378.19;;;16.42;80.33
54910;BME280;63189;51.240;9.964;2022-09-09T07:24:02;97384.34;;;16.56;80.03
54910;BME280;63189;51.240;9.964;2022-09-09T07:26:30;97381.25;;;16.63;79.55
54910;BME280;63189;51.240;9.964;2022-09-09T07:28:55;97379.34;;;16.38;79.56
54910;BME280;63189;51.240;9.964;2022-09-09T07:31:29;97370.06;;;16.19;80.44
54910;BME280;63189;51.240;9.964;2022-09-09T07:33:59;97385.53;;;16.23;80.62
54910;BME280;63189;51.240;9.964;2022-09-09T07:36:30;97377.47;;;16.26;80.65
54910;BME280;63189;51.240;9.964;2022-09-09T07:38:58;97385.34;;;16.40;80.97
54910;BME280;63189;51.240;9.964;2022-09-09T07:43:55;97387.44;;;17.43;78.73
54910;BME280;63189;51.240;9.964;2022-09-09T07:46:22;97388.75;;;17.63;76.72
54910;BME280;63189;51.240;9.964;2022-09-09T07:48:55;97389.88;;;17.46;75.90
54910;BME280;63189;51.240;9.964;2022-09-09T07:51:27;97389.34;;;17.41;76.93
54910;BME280;63189;51.240;9.964;2022-09-09T07:53:55;97392.16;;;17.25;76.59
54910;BME280;63189;51.240;9.964;2022-09-09T07:56:24;97391.56;;;17.08;77.12
54910;BME280;63189;51.240;9.964;2022-09-09T07:58:51;97394.78;;;16.98;77.98
54910;BME280;63189;51.240;9.964;2022-09-09T08:01:20;97400.47;;;16.92;77.33
54910;BME280;63189;51.240;9.964;2022-09-09T08:03:51;97407.47;;;16.79;77.98
54910;BME280;63189;51.240;9.964;2022-09-09T08:06:17;97401.13;;;16.69;78.10
54910;BME280;63189;51.240;9.964;2022-09-09T08:08:43;97399.78;;;16.62;78.66
54910;BME280;63189;51.240;9.964;2022-09-09T08:11:11;97407.56;;;16.63;79.00
54910;BME280;63189;51.240;9.964;2022-09-09T08:13:38;97400.09;;;16.57;78.30
54910;BME280;63189;51.240;9.964;2022-09-09T08:16:28;97411.53;;;16.56;78.17
54910;BME280;63189;51.240;9.964;2022-09-09T08:18:53;97401.84;;;16.57;79.24
54910;BME280;63189;51.240;9.964;2022-09-09T08:21:26;97416.91;;;16.69;79.37
54910;BME280;63189;51.240;9.964;2022-09-09T08:23:53;97410.84;;;16.67;78.06
54910;BME280;63189;51.240;9.964;2022-09-09T08:26:25;97411.72;;;16.67;80.60
54910;BME280;63189;51.240;9.964;2022-09-09T08:28:52;97419.34;;;16.58;78.28
54910;BME280;63189;51.240;9.964;2022-09-09T08:31:21;97415.09;;;16.55;78.29
54910;BME280;63189;51.240;9.964;2022-09-09T08:33:48;97416.34;;;16.50;78.55
54910;BME280;63189;51.240;9.964;2022-09-09T08:36:16;97415.00;;;16.57;79.29
54910;BME280;63189;51.240;9.964;2022-09-09T08:38:42;97403.16;;;16.64;79.91
54910;BME280;63189;51.240;9.964;2022-09-09T08:43:41;97420.81;;;16.76;78.56
54910;BME280;63189;51.240;9.964;2022-09-09T08:46:18;97415.19;;;16.82;78.24
54910;BME280;63189;51.240;9.964;2022-09-09T08:48:56;97419.88;;;16.77;77.73
54910;BME280;63189;51.240;9.964;2022-09-09T08:51:26;97418.50;;;16.71;77.73
54910;BME280;63189;51.240;9.964;2022-09-09T08:53:54;97433.81;;;16.79;77.44
54910;BME280;63189;51.240;9.964;2022-09-09T08:56:23;97440.63;;;16.96;76.92
54910;BME280;63189;51.240;9.964;2022-09-09T08:58:52;97446.81;;;17.09;76.79
54910;BME280;63189;51.240;9.964;2022-09-09T09:01:34;97439.28;;;17.30;76.37
54910;BME280;63189;51.240;9.964;2022-09-09T09:09:59;97441.50;;;17.36;75.26
54910;BME280;63189;51.240;9.964;2022-09-09T09:12:27;97445.81;;;17.37;74.62
54910;BME280;63189;51.240;9.964;2022-09-09T09:14:54;97436.59;;;17.57;75.07
54910;BME280;63189;51.240;9.964;2022-09-09T09:17:23;97446.16;;;17.72;73.91
54910;BME280;63189;51.240;9.964;2022-09-09T09:19:50;97444.19;;;18.27;72.28
54910;BME280;63189;51.240;9.964;2022-09-09T09:22:29;97437.09;;;18.65;70.77
54910;BME280;63189;51.240;9.964;2022-09-09T09:30:29;97429.06;;;19.15;67.56
54910;BME280;63189;51.240;9.964;2022-09-09T09:33:08;97440.22;;;19.31;65.70
54910;BME280;63189;51.240;9.964;2022-09-09T09:35:37;97424.41;;;19.42;65.63
54910;BME280;63189;51.240;9.964;2022-09-09T09:38:16;97426.44;;;19.39;67.26
54910;BME280;63189;51.240;9.964;2022-09-09T09:40:58;97428.59;;;19.69;63.79
54910;BME280;63189;51.240;9.964;2022-09-09T09:43:29;97430.69;;;19.99;63.06
54910;BME280;63189;51.240;9.964;2022-09-09T09:45:55;97428.91;;;20.22;64.65
54910;BME280;63189;51.240;9.964;2022-09-09T09:48:20;97432.69;;;20.53;63.53
54910;BME280;63189;51.240;9.964;2022-09-09T09:50:59;97425.69;;;20.63;60.39
54910;BME280;63189;51.240;9.964;2022-09-09T09:53:29;97425.06;;;20.82;62.04
54910;BME280;63189;51.240;9.964;2022-09-09T09:56:08;97424.47;;;20.89;58.16
54910;BME280;63189;51.240;9.964;2022-09-09T10:01:24;97418.41;;;21.10;60.27
54910;BME280;63189;51.240;9.964;2022-09-09T10:03:52;97411.41;;;21.09;58.49
54910;BME280;63189;51.240;9.964;2022-09-09T10:06:33;97397.00;;;21.22;57.95
54910;BME280;63189;51.240;9.964;2022-09-09T10:08:59;97408.44;;;21.34;57.53
54910;BME280;63189;51.240;9.964;2022-09-09T10:14:20;97408.44;;;21.34;57.48
54910;BME280;63189;51.240;9.964;2022-09-09T10:19:32;97395.81;;;21.15;56.89
54910;BME280;63189;51.240;9.964;2022-09-09T10:27:30;97397.41;;;20.63;56.04
54910;BME280;63189;51.240;9.964;2022-09-09T10:33:02;97390.19;;;20.65;55.04
54910;BME280;63189;51.240;9.964;2022-09-09T10:35:52;97407.28;;;20.39;54.48
54910;BME280;63189;51.240;9.964;2022-09-09T10:38:52;97405.22;;;20.09;56.61
54910;BME280;63189;51.240;9.964;2022-09-09T10:53:02;97385.44;;;19.79;59.40
54910;BME280;63189;51.240;9.964;2022-09-09T10:55:38;97394.88;;;19.95;60.00
54910;BME280;63189;51.240;9.964;2022-09-09T10:58:21;97392.22;;;19.95;59.95
54910;BME280;63189;51.240;9.964;2022-09-09T11:00:53;97381.75;;;19.82;59.13
54910;BME280;63189;51.240;9.964;2022-09-09T11:03:25;97378.63;;;19.99;59.81
54910;BME280;63189;51.240;9.964;2022-09-09T11:05:57;97385.00;;;20.19;60.07
54910;BME280;63189;51.240;9.964;2022-09-09T11:08:26;97390.31;;;20.53;57.78
54910;BME280;63189;51.240;9.964;2022-09-09T11:13:46;97385.94;;;20.85;55.29
54910;BME280;63189;51.240;9.964;2022-09-09T11:16:39;97362.91;;;20.97;54.72
54910;BME280;63189;51.240;9.964;2022-09-09T11:21:45;97384.91;;;21.41;55.21
54910;BME280;63189;51.240;9.964;2022-09-09T11:24:33;97382.13;;;21.42;52.38
54910;BME280;63189;51.240;9.964;2022-09-09T11:27:06;97384.84;;;21.31;53.43
54910;BME280;63189;51.240;9.964;2022-09-09T11:32:40;97390.56;;;21.04;53.16
54910;BME280;63189;51.240;9.964;2022-09-09T11:35:38;97377.47;;;20.91;52.80
54910;BME280;63189;51.240;9.964;2022-09-09T11:40:36;97382.78;;;20.91;53.10
54910;BME280;63189;51.240;9.964;2022-09-09T11:43:11;97375.31;;;20.96;51.69
54910;BME280;63189;51.240;9.964;2022-09-09T11:45:39;97370.19;;;21.04;52.09
54910;BME280;63189;51.240;9.964;2022-09-09T11:48:05;97368.16;;;21.08;52.02
54910;BME280;63189;51.240;9.964;2022-09-09T11:53:30;97375.22;;;21.19;49.14
54910;BME280;63189;51.240;9.964;2022-09-09T11:56:10;97359.91;;;21.22;49.10
54910;BME280;63189;51.240;9.964;2022-09-09T11:58:41;97368.66;;;21.02;46.89
54910;BME280;63189;51.240;9.964;2022-09-09T12:01:14;97355.31;;;20.92;49.12
54910;BME280;63189;51.240;9.964;2022-09-09T12:03:45;97372.63;;;21.08;50.66
54910;BME280;63189;51.240;9.964;2022-09-09T12:06:33;97360.06;;;21.10;48.68
54910;BME280;63189;51.240;9.964;2022-09-09T12:11:40;97373.25;;;21.32;47.52
54910;BME280;63189;51.240;9.964;2022-09-09T12:14:38;97363.22;;;21.36;46.42
54910;BME280;63189;51.240;9.964;2022-09-09T12:17:17;97374.09;;;21.32;46.01
54910;BME280;63189;51.240;9.964;2022-09-09T12:19:44;97372.84;;;21.04;47.76
54910;BME280;63189;51.240;9.964;2022-09-09T12:28:02;97381.63;;;20.62;51.33
54910;BME280;63189;51.240;9.964;2022-09-09T12:30:40;97376.34;;;20.51;51.03
54910;BME280;63189;51.240;9.964;2022-09-09T12:33:13;97371.91;;;20.51;50.71
54910;BME280;63189;51.240;9.964;2022-09-09T12:35:43;97370.81;;;20.42;50.22
54910;BME280;63189;51.240;9.964;2022-09-09T12:38:17;97376.59;;;20.59;48.35
54910;BME280;63189;51.240;9.964;2022-09-09T12:40:55;97370.03;;;20.85;48.40
54910;BME280;63189;51.240;9.964;2022-09-09T12:43:22;97362.50;;;21.01;47.96
54910;BME280;63189;51.240;9.964;2022-09-09T12:45:50;97359.41;;;20.96;47.09
54910;BME280;63189;51.240;9.964;2022-09-09T12:48:25;97350.00;;;20.92;48.15
54910;BME280;63189;51.240;9.964;2022-09-09T12:50:52;97351.59;;;20.84;47.26
54910;BME280;63189;51.240;9.964;2022-09-09T12:53:22;97367.09;;;20.99;49.05
54910;BME280;63189;51.240;9.964;2022-09-09T12:56:03;97349.97;;;21.03;48.23
54910;BME280;63189;51.240;9.964;2022-09-09T12:58:30;97356.19;;;21.14;47.44
54910;BME280;63189;51.240;9.964;2022-09-09T13:01:01;97367.72;;;21.24;47.66
54910;BME280;63189;51.240;9.964;2022-09-09T13:03:28;97364.16;;;21.14;46.42
54910;BME280;63189;51.240;9.964;2022-09-09T13:05:58;97356.28;;;20.91;45.81
54910;BME280;63189;51.240;9.964;2022-09-09T13:08:25;97347.19;;;20.62;46.87
54910;BME280;63189;51.240;9.964;2022-09-09T13:11:00;97359.03;;;20.46;47.73
54910;BME280;63189;51.240;9.964;2022-09-09T13:15:59;97345.97;;;20.77;49.18
54910;BME280;63189;51.240;9.964;2022-09-09T13:18:33;97352.91;;;20.89;47.01
54910;BME280;63189;51.240;9.964;2022-09-09T13:20:59;97345.41;;;21.06;47.08
54910;BME280;63189;51.240;9.964;2022-09-09T13:23:30;97347.97;;;20.96;46.43
54910;BME280;63189;51.240;9.964;2022-09-09T13:26:24;97351.25;;;20.88;47.71
54910;BME280;63189;51.240;9.964;2022-09-09T13:28:51;97335.63;;;20.74;47.57
54910;BME280;63189;51.240;9.964;2022-09-09T13:31:33;97334.22;;;20.59;48.68
54910;BME280;63189;51.240;9.964;2022-09-09T13:33:59;97332.78;;;20.55;48.58
54910;BME280;63189;51.240;9.964;2022-09-09T13:36:33;97333.22;;;20.71;48.75
54910;BME280;63189;51.240;9.964;2022-09-09T13:39:01;97337.25;;;20.54;48.07
54910;BME280;63189;51.240;9.964;2022-09-09T13:41:44;97334.81;;;20.40;47.82
54910;BME280;63189;51.240;9.964;2022-09-09T13:44:36;97335.66;;;20.40;47.73
54910;BME280;63189;51.240;9.964;2022-09-09T13:47:06;97335.44;;;20.55;47.14
54910;BME280;63189;51.240;9.964;2022-09-09T13:49:41;97328.13;;;20.79;47.58
54910;BME280;63189;51.240;9.964;2022-09-09T13:52:12;97347.00;;;20.97;47.01
54910;BME280;63189;51.240;9.964;2022-09-09T13:54:39;97333.53;;;20.89;45.09
54910;BME280;63189;51.240;9.964;2022-09-09T13:57:05;97347.22;;;20.94;45.01
54910;BME280;63189;51.240;9.964;2022-09-09T13:59:31;97340.16;;;20.83;45.80
54910;BME280;63189;51.240;9.964;2022-09-09T14:01:57;97331.09;;;20.97;46.32
54910;BME280;63189;51.240;9.964;2022-09-09T14:04:23;97338.34;;;20.95;46.26
54910;BME280;63189;51.240;9.964;2022-09-09T14:06:49;97331.28;;;20.84;45.65
54910;BME280;63189;51.240;9.964;2022-09-09T14:09:16;97341.25;;;20.81;45.30
54910;BME280;63189;51.240;9.964;2022-09-09T14:11:43;97336.75;;;20.92;45.16
54910;BME280;63189;51.240;9.964;2022-09-09T14:14:09;97327.53;;;20.87;45.30
54910;BME280;63189;51.240;9.964;2022-09-09T14:16:34;97339.88;;;20.97;44.70
54910;BME280;63189;51.240;9.964;2022-09-09T14:19:00;97338.22;;;20.96;44.41
54910;BME280;63189;51.240;9.964;2022-09-09T14:21:26;97336.06;;;20.90;45.26
54910;BME280;63189;51.240;9.964;2022-09-09T14:23:52;97330.25;;;20.96;46.25
54910;BME280;63189;51.240;9.964;2022-09-09T14:26:22;97324.47;;;20.91;45.06
54910;BME280;63189;51.240;9.964;2022-09-09T14:28:48;97326.88;;;20.94;44.77
54910;BME280;63189;51.240;9.964;2022-09-09T14:31:14;97327.44;;;20.77;44.83
54910;BME280;63189;51.240;9.964;2022-09-09T14:33:40;97332.13;;;20.73;44.38
54910;BME280;63189;51.240;9.964;2022-09-09T14:36:05;97329.84;;;20.69;45.22
54910;BME280;63189;51.240;9.964;2022-09-09T14:38:32;97326.25;;;20.70;46.04
54910;BME280;63189;51.240;9.964;2022-09-09T14:41:00;97325.22;;;20.82;46.96
54910;BME280;63189;51.240;9.964;2022-09-09T14:43:26;97326.91;;;20.83;46.43
54910;BME280;63189;51.240;9.964;2022-09-09T14:45:52;97321.88;;;20.80;46.80
54910;BME280;63189;51.240;9.964;2022-09-09T14:48:17;97320.44;;;20.76;47.08
54910;BME280;63189;51.240;9.964;2022-09-09T14:50:43;97320.84;;;20.60;46.97
54910;BME280;63189;51.240;9.964;2022-09-09T14:53:08;97321.56;;;20.62;47.78
54910;BME280;63189;51.240;9.964;2022-09-09T14:55:41;97317.34;;;20.60;47.52
54910;BME280;63189;51.240;9.964;2022-09-09T14:58:07;97317.38;;;20.49;48.23
54910;BME280;63189;51.240;9.964;2022-09-09T15:00:43;97309.44;;;20.37;48.37
54910;BME280;63189;51.240;9.964;2022-09-09T15:03:19;97312.78;;;20.39;48.41
54910;BME280;63189;51.240;9.964;2022-09-09T15:05:44;97306.22;;;20.45;48.79
54910;BME280;63189;51.240;9.964;2022-09-09T15:08:11;97307.38;;;20.52;48.13
54910;BME280;63189;51.240;9.964;2022-09-09T15:10:36;97314.34;;;20.64;47.60